createdAt,value
2019-04-20T00:00:06.148Z,20.77
2019-04-20T00:04:39.015Z,15.93
2019-04-20T00:09:19.343Z,15.10
2019-04-20T00:13:59.474Z,15.53
2019-04-20T00:18:26.889Z,13.70
2019-04-20T00:23:01.673Z,13.63
2019-04-20T00:27:55.592Z,16.83
2019-04-20T00:32:19.987Z,13.10
2019-04-20T00:36:45.347Z,21.10
2019-04-20T00:41:20.324Z,13.23
2019-04-20T00:45:57.347Z,22.77
2019-04-20T00:50:41.782Z,17.50
2019-04-20T00:55:00.074Z,14.93
2019-04-20T00:59:55.246Z,13.17
2019-04-20T01:04:20.201Z,18.33
2019-04-20T01:08:59.248Z,15.50
2019-04-20T01:18:25.090Z,14.60
2019-04-20T01:23:03.294Z,19.60
2019-04-20T01:27:42.571Z,15.30
2019-04-20T01:32:15.008Z,14.67
2019-04-20T01:36:57.566Z,18.33
2019-04-20T01:41:16.132Z,17.40
2019-04-20T01:45:52.262Z,20.60
2019-04-20T01:50:27.707Z,17.17
2019-04-20T01:55:19.588Z,13.57
2019-04-20T01:59:52.028Z,18.07
2019-04-20T02:04:35.992Z,16.30
2019-04-20T02:09:10.175Z,23.27
2019-04-20T02:13:44.449Z,17.33
2019-04-20T02:18:23.128Z,19.00
2019-04-20T02:23:01.864Z,19.17
2019-04-20T02:27:27.034Z,15.40
2019-04-20T02:37:09.580Z,17.20
2019-04-20T02:41:44.302Z,17.67
2019-04-20T02:46:33.378Z,15.33
2019-04-20T02:51:08.454Z,16.47
2019-04-20T02:55:41.718Z,25.40
2019-04-20T03:04:20.539Z,23.57
2019-04-20T03:09:09.005Z,24.50
2019-04-20T03:13:41.436Z,17.23
2019-04-20T03:18:13.899Z,23.20
2019-04-20T03:23:11.164Z,25.27
2019-04-20T03:27:19.418Z,26.33
2019-04-20T03:36:49.535Z,33.47
2019-04-20T03:41:05.188Z,30.73
2019-04-20T03:45:52.670Z,23.17
2019-04-20T03:50:42.400Z,27.60
2019-04-20T03:55:33.779Z,21.00
2019-04-20T04:00:24.991Z,22.77
2019-04-20T04:05:13.548Z,23.30
2019-04-20T04:09:39.736Z,20.40
2019-04-20T04:14:05.021Z,23.63
2019-04-20T04:18:44.744Z,18.10
2019-04-20T04:23:32.303Z,17.43
2019-04-20T04:28:03.869Z,17.60
2019-04-20T04:33:02.974Z,20.23
2019-04-20T04:37:17.994Z,22.47
2019-04-20T04:41:51.207Z,16.27
2019-04-20T04:46:03.988Z,18.47
2019-04-20T04:50:44.621Z,16.93
2019-04-20T04:55:19.958Z,16.73
2019-04-20T04:59:46.790Z,18.00
2019-04-20T05:04:44.532Z,19.30
2019-04-20T05:09:00.147Z,16.87
2019-04-20T05:13:38.081Z,18.33
2019-04-20T05:18:35.751Z,17.07
2019-04-20T05:23:31.930Z,25.33
2019-04-20T05:28:09.381Z,19.77
2019-04-20T05:32:37.868Z,18.17
2019-04-20T05:37:33.063Z,23.70
2019-04-20T05:41:58.180Z,17.50
2019-04-20T05:46:37.345Z,21.37
2019-04-20T05:51:04.086Z,20.30
2019-04-20T05:55:40.099Z,21.40
2019-04-20T06:00:19.190Z,23.57
2019-04-20T06:04:59.673Z,23.93
2019-04-20T06:09:24.000Z,17.33
2019-04-20T06:13:58.032Z,21.10
2019-04-20T06:18:37.219Z,17.37
2019-04-20T06:28:09.076Z,22.83
2019-04-20T06:33:45.033Z,18.97
2019-04-20T06:38:00.880Z,21.63
2019-04-20T06:42:34.286Z,30.83
2019-04-20T06:47:09.344Z,28.17
2019-04-20T06:51:42.736Z,30.30
2019-04-20T06:56:23.671Z,28.23
2019-04-20T07:01:03.888Z,24.30
2019-04-20T07:05:31.785Z,22.23
2019-04-20T07:10:14.727Z,23.77
2019-04-20T07:14:33.100Z,21.67
2019-04-20T07:19:20.096Z,26.90
2019-04-20T07:24:03.572Z,20.40
2019-04-20T07:28:35.344Z,23.97
2019-04-20T07:33:19.936Z,16.73
2019-04-20T07:42:28.971Z,25.27
2019-04-20T07:51:14.494Z,34.97
2019-04-20T07:56:07.555Z,30.47
2019-04-20T08:00:48.606Z,22.70
2019-04-20T08:09:35.002Z,15.77
2019-04-20T08:14:18.100Z,20.07
2019-04-20T08:18:51.315Z,17.03
2019-04-20T08:23:23.214Z,17.27
2019-04-20T08:27:55.022Z,21.23
2019-04-20T08:32:51.818Z,20.37
2019-04-20T08:37:25.777Z,18.67
2019-04-20T08:42:07.436Z,18.73
2019-04-20T08:46:44.590Z,15.47
2019-04-20T08:51:14.262Z,15.17
2019-04-20T08:55:43.901Z,16.63
2019-04-20T09:00:01.527Z,12.10
2019-04-20T09:04:45.138Z,14.27
2019-04-20T09:09:37.926Z,17.43
2019-04-20T09:13:50.123Z,15.13
2019-04-20T09:18:34.363Z,9.97
2019-04-20T09:23:16.893Z,17.77
2019-04-20T09:27:45.853Z,22.30
2019-04-20T09:32:28.704Z,15.27
2019-04-20T09:37:14.181Z,10.33
2019-04-20T09:41:54.805Z,14.07
2019-04-20T09:46:10.125Z,19.73
2019-04-20T09:51:00.882Z,11.27
2019-04-20T10:00:16.827Z,11.23
2019-04-20T10:04:33.438Z,11.83
2019-04-20T10:09:05.147Z,12.57
2019-04-20T10:13:40.532Z,12.43
2019-04-20T10:18:15.149Z,12.83
2019-04-20T10:22:46.695Z,14.47
2019-04-20T10:27:18.686Z,19.50
2019-04-20T10:31:51.421Z,16.10
2019-04-20T10:36:29.827Z,9.70
2019-04-20T10:41:11.470Z,19.50
2019-04-20T10:45:39.131Z,14.13
2019-04-20T10:50:11.569Z,11.53
2019-04-20T10:54:38.416Z,16.10
2019-04-20T10:59:11.885Z,13.07
2019-04-20T11:03:45.104Z,9.90
2019-04-20T11:08:16.902Z,10.17
2019-04-20T11:12:48.469Z,8.03
2019-04-20T11:17:24.688Z,12.57
2019-04-20T11:21:57.061Z,12.97
2019-04-20T11:26:28.494Z,12.37
2019-04-20T11:31:01.935Z,8.97
2019-04-20T11:35:32.645Z,8.13
2019-04-20T11:40:01.387Z,8.50
2019-04-20T11:44:34.855Z,7.93
2019-04-20T11:49:07.891Z,7.43
2019-04-20T11:53:42.654Z,7.60
2019-04-20T11:58:16.286Z,8.50
2019-04-20T12:02:53.815Z,11.77
2019-04-20T12:07:22.553Z,8.60
2019-04-20T12:12:08.251Z,5.13
2019-04-20T12:16:23.600Z,11.17
2019-04-20T12:20:43.000Z,5.70
2019-04-20T12:25:02.575Z,8.17
2019-04-20T12:29:23.672Z,7.80
2019-04-20T12:33:44.308Z,6.83
2019-04-20T12:38:11.240Z,7.03
2019-04-20T12:42:46.645Z,9.03
2019-04-20T12:47:19.691Z,11.37
2019-04-20T12:51:59.258Z,6.47
2019-04-20T12:56:26.646Z,5.20
2019-04-20T13:00:58.850Z,5.93
2019-04-20T13:05:31.870Z,7.20
2019-04-20T13:10:07.785Z,6.47
2019-04-20T13:15:02.425Z,9.23
2019-04-20T13:38:12.028Z,6.97
2019-04-20T13:42:46.156Z,8.67
2019-04-20T13:47:19.120Z,4.43
2019-04-20T13:51:51.028Z,5.37
2019-04-20T14:01:57.369Z,9.00
2019-04-20T14:06:29.653Z,8.90
2019-04-20T14:11:07.303Z,9.30
2019-04-20T14:15:44.872Z,5.17
2019-04-20T14:20:22.019Z,4.47
2019-04-20T14:24:53.274Z,4.67
2019-04-20T14:29:27.209Z,6.50
2019-04-20T14:34:02.595Z,4.47
2019-04-20T14:38:33.994Z,4.17
2019-04-20T14:43:08.940Z,6.27
2019-04-20T14:47:43.703Z,3.60
2019-04-20T14:52:17.727Z,4.80
2019-04-20T14:56:49.568Z,11.63
2019-04-20T15:01:40.859Z,4.77
2019-04-20T15:06:17.739Z,5.80
2019-04-20T15:10:49.593Z,6.33
2019-04-20T15:15:21.096Z,10.50
2019-04-20T15:20:12.216Z,8.60
2019-04-20T15:24:45.609Z,8.47
2019-04-20T15:29:22.229Z,6.33
2019-04-20T15:33:57.125Z,5.87
2019-04-20T15:38:29.133Z,5.97
2019-04-20T15:43:10.165Z,5.67
2019-04-20T15:47:34.217Z,4.50
2019-04-20T15:56:35.457Z,5.67
2019-04-20T16:01:08.309Z,4.57
2019-04-20T16:06:01.049Z,5.23
2019-04-20T16:10:33.443Z,8.90
2019-04-20T16:15:07.483Z,6.37
2019-04-20T16:19:49.357Z,7.27
2019-04-20T16:24:12.976Z,8.40
2019-04-20T16:28:46.179Z,5.73
2019-04-20T16:33:18.666Z,6.03
2019-04-20T16:37:52.743Z,5.63
2019-04-20T16:42:24.994Z,7.40
2019-04-20T16:46:58.328Z,4.20
2019-04-20T16:51:32.175Z,7.10
2019-04-20T16:56:06.608Z,8.40
2019-04-20T17:00:56.613Z,6.23
2019-04-20T17:05:29.152Z,11.53
2019-04-20T17:10:04.362Z,9.67
2019-04-20T17:14:39.798Z,5.80
2019-04-20T17:19:15.989Z,10.33
2019-04-20T17:23:47.252Z,10.10
2019-04-20T17:28:39.111Z,9.10
2019-04-20T17:33:20.586Z,7.07
2019-04-20T17:37:50.371Z,7.47
2019-04-20T17:42:41.239Z,8.67
2019-04-20T17:47:24.908Z,9.57
2019-04-20T17:51:52.284Z,6.10
2019-04-20T17:56:05.782Z,5.27
2019-04-20T18:00:56.025Z,7.73
2019-04-20T18:05:58.567Z,6.60
2019-04-20T18:10:26.054Z,7.53
2019-04-20T18:15:00.754Z,9.33
2019-04-20T18:19:30.955Z,7.87
2019-04-20T18:24:06.431Z,8.73
2019-04-20T18:38:32.548Z,10.43
2019-04-20T18:43:04.934Z,9.97
2019-04-20T18:47:49.667Z,14.80
2019-04-20T18:52:09.331Z,10.50
2019-04-20T18:56:47.367Z,12.67
2019-04-20T19:01:19.289Z,13.10
2019-04-20T19:05:57.958Z,10.57
2019-04-20T19:10:35.982Z,13.00
2019-04-20T19:15:30.437Z,10.77
2019-04-20T19:19:46.800Z,10.43
2019-04-20T19:24:18.285Z,13.27
2019-04-20T19:28:55.763Z,17.60
2019-04-20T19:33:38.879Z,16.53
2019-04-20T19:38:09.605Z,16.83
2019-04-20T19:42:45.268Z,14.63
2019-04-20T19:47:31.221Z,16.17
2019-04-20T19:52:13.645Z,11.93
2019-04-20T19:56:32.423Z,16.50
2019-04-20T20:00:55.932Z,21.23
2019-04-20T20:05:33.714Z,14.70
2019-04-20T20:10:30.234Z,13.40
2019-04-20T20:14:57.417Z,16.60
2019-04-20T20:19:45.670Z,16.87
2019-04-20T20:24:06.107Z,16.47
2019-04-20T20:28:47.065Z,17.60
2019-04-20T20:33:30.655Z,17.07
2019-04-20T20:37:50.130Z,18.27
2019-04-20T20:42:29.371Z,21.10
2019-04-20T20:47:00.763Z,16.47
2019-04-20T20:51:51.363Z,16.17
2019-04-20T20:56:01.915Z,17.17
2019-04-20T21:00:31.934Z,17.73
2019-04-20T21:04:53.733Z,20.47
2019-04-20T21:09:27.113Z,14.00
2019-04-20T21:14:01.349Z,25.67
2019-04-20T21:23:18.733Z,27.90
2019-04-20T21:27:42.765Z,17.60
2019-04-20T21:32:19.755Z,15.10
2019-04-20T21:36:56.224Z,14.10
2019-04-20T21:41:27.867Z,11.93
2019-04-20T21:46:04.958Z,12.10
2019-04-20T21:50:57.490Z,13.53
2019-04-20T21:55:09.924Z,12.97
2019-04-20T21:59:45.512Z,13.03
2019-04-20T22:04:20.058Z,15.60
2019-04-20T22:08:53.055Z,15.20
2019-04-20T22:13:29.559Z,18.27
2019-04-20T22:18:01.095Z,14.17
2019-04-20T22:22:47.157Z,15.17
2019-04-20T22:27:14.805Z,16.17
2019-04-20T22:31:46.210Z,16.80
2019-04-20T22:40:47.417Z,15.00
2019-04-20T22:45:19.110Z,16.50
2019-04-20T22:50:11.861Z,14.03
2019-04-20T22:54:42.276Z,15.10
2019-04-20T22:59:04.235Z,15.77
2019-04-20T23:03:32.687Z,12.00
2019-04-20T23:08:06.598Z,18.30
2019-04-20T23:12:39.940Z,15.80
2019-04-20T23:17:12.473Z,22.43
2019-04-20T23:21:48.602Z,15.27
2019-04-20T23:26:29.319Z,20.87
2019-04-20T23:30:59.814Z,22.90
2019-04-20T23:35:26.674Z,19.40
2019-04-20T23:39:57.908Z,17.00
2019-04-20T23:44:52.110Z,20.07
2019-04-20T23:49:53.324Z,21.17
2019-04-20T23:54:12.427Z,15.47
2019-04-20T23:58:44.328Z,16.87
